Airfield :
LOGIN :

Register | Disclaimer

   EN    FR    IT 

 










Legend :    VFR   Marginal VFR   IFR   Intensive IFR   Very Intensive IFR
Visi :
Ceiling :
>= 8 km
>= 3000ft
5 to 8 km
1000 to 3000 ft
1500m to 5 km
500 to 1000 ft
800 to 1500m
200 to 500 ft
< 800m
< 200 ft
Symbols :   Thunderstorms  Fog  Heavy snow  Heavy precipitations  Wind > 20 kt
SIGMETs :     Misc.  Thunderstorms  Icing  Turbulence  Mountain Waves  Volcanic Ashes







- Airport Elevation : 2077 ft
- IATA code : FMM


EDJA - Memmingen

CURRENT METAR :
  • 251350Z 36007KT 330V030 9999 SCT056 SCT064 20/08 Q1022

EXPIRED METARs :
  • 251320Z 02008KT 9999 FEW054 19/09 Q1022
  • 251250Z 02004KT 330V090 9999 FEW051 SCT062 19/08 Q1022
  • 251220Z 03006KT 340V070 9999 SCT043 SCT054 BKN064 18/09 Q1022
  • 251150Z 02004KT 310V120 CAVOK 19/08 Q1022
  • 251120Z 35006KT 320V020 9999 FEW042 SCT054 17/10 Q1023

TAF TAF EDJA
Valid from the 25 at 12:00 until the 25 at 21:00 UTC


251100Z 2512/2521 01005KT 9999 FEW045
No reported NOTAMs for that airfield.



MET'MAP, your aeronautical weather chart ! - Copyright ORBIFLY December 2007 - Disclaimer

ORBIFLY MET'MAP TEAM :

Programming & Development : Alexandra Zaïnal
Concept & Development : Baudouin d'Aumeries
Co-Development & Prog : Marc-Olivier Méhu
Technical & hardware support : Manuel Goepfert

Contact : metmap@orbifly.com




SOURCES & CREDITS :

   NOAA